createdAt,value
2019-02-28T00:00:17.629Z,11.53
2019-02-28T00:02:46.467Z,10.58
2019-02-28T00:05:13.681Z,12.80
2019-02-28T00:07:40.879Z,9.95
2019-02-28T00:10:09.534Z,12.60
2019-02-28T00:12:36.701Z,9.88
2019-02-28T00:15:07.962Z,10.18
2019-02-28T00:17:35.060Z,10.35
2019-02-28T00:20:04.752Z,9.15
2019-02-28T00:22:31.907Z,9.53
2019-02-28T00:25:01.158Z,9.60
2019-02-28T00:27:27.892Z,9.65
2019-02-28T00:29:56.086Z,11.60
2019-02-28T00:32:24.803Z,9.73
2019-02-28T00:34:52.057Z,9.40
2019-02-28T00:37:19.057Z,8.03
2019-02-28T00:39:46.189Z,15.68
2019-02-28T00:42:17.320Z,11.95
2019-02-28T00:44:42.292Z,10.32
2019-02-28T00:47:09.470Z,10.63
2019-02-28T00:49:38.947Z,10.38
2019-02-28T00:52:05.969Z,9.03
2019-02-28T00:54:33.074Z,9.10
2019-02-28T00:57:00.041Z,9.75
2019-02-28T00:59:31.681Z,11.28
2019-02-28T01:01:58.231Z,11.22
2019-02-28T01:04:25.344Z,9.95
2019-02-28T01:06:52.345Z,14.38
2019-02-28T01:09:19.429Z,11.60
2019-02-28T01:11:46.450Z,16.32
2019-02-28T01:14:13.510Z,14.58
2019-02-28T01:16:41.399Z,10.25
2019-02-28T01:19:09.911Z,12.15
2019-02-28T01:21:37.174Z,11.85
2019-02-28T01:24:04.331Z,13.05
2019-02-28T01:26:31.374Z,10.03
2019-02-28T01:29:01.717Z,12.68
2019-02-28T01:31:27.283Z,13.05
2019-02-28T01:33:56.053Z,11.65
2019-02-28T01:36:23.181Z,6.90
2019-02-28T01:38:50.262Z,9.00
2019-02-28T01:41:17.261Z,7.53
2019-02-28T01:43:44.513Z,10.30
2019-02-28T01:46:14.460Z,8.78
2019-02-28T01:48:40.609Z,12.23
2019-02-28T01:51:07.685Z,12.93
2019-02-28T01:53:34.789Z,11.60
2019-02-28T01:56:02.550Z,12.82
2019-02-28T01:58:31.168Z,9.68
2019-02-28T02:00:58.295Z,11.50
2019-02-28T02:03:25.357Z,12.98
2019-02-28T02:05:53.225Z,12.55
2019-02-28T02:08:20.283Z,6.17
2019-02-28T02:10:47.304Z,7.87
2019-02-28T02:13:14.446Z,13.25
2019-02-28T02:15:41.501Z,12.70
2019-02-28T02:18:09.451Z,14.60
2019-02-28T02:20:37.265Z,11.97
2019-02-28T02:23:04.382Z,6.47
2019-02-28T02:25:31.430Z,11.18
2019-02-28T02:27:58.441Z,11.10
2019-02-28T02:30:25.494Z,11.78
2019-02-28T02:32:52.530Z,10.40
2019-02-28T02:35:19.630Z,11.28
2019-02-28T02:37:46.671Z,12.55
2019-02-28T02:40:14.730Z,11.57
2019-02-28T02:42:48.512Z,11.65
2019-02-28T02:45:13.702Z,11.73
2019-02-28T02:47:42.040Z,11.80
2019-02-28T02:50:13.389Z,11.57
2019-02-28T02:52:46.028Z,7.92
2019-02-28T02:55:13.311Z,10.38
2019-02-28T02:57:42.792Z,10.63
2019-02-28T03:00:15.093Z,11.85
2019-02-28T03:02:45.084Z,9.88
2019-02-28T03:05:12.168Z,10.32
2019-02-28T03:07:39.284Z,10.10
2019-02-28T03:10:09.030Z,9.80
2019-02-28T03:12:36.165Z,10.70
2019-02-28T03:15:06.323Z,10.75
2019-02-28T03:17:33.374Z,8.40
2019-02-28T03:20:00.720Z,12.37
2019-02-28T03:22:29.869Z,10.58
2019-02-28T03:24:56.722Z,9.93
2019-02-28T03:27:23.765Z,16.40
2019-02-28T03:29:50.816Z,8.90
2019-02-28T03:32:17.819Z,10.23
2019-02-28T03:34:55.238Z,8.23
2019-02-28T03:37:13.709Z,4.33
2019-02-28T03:39:40.723Z,8.95
2019-02-28T03:42:10.145Z,8.40
2019-02-28T03:44:38.382Z,7.97
2019-02-28T03:47:05.410Z,8.23
2019-02-28T03:49:32.479Z,14.00
2019-02-28T03:52:05.492Z,12.05
2019-02-28T03:54:29.806Z,9.80
2019-02-28T03:56:57.174Z,12.40
2019-02-28T03:59:25.040Z,10.43
2019-02-28T04:01:52.049Z,11.08
2019-02-28T04:04:19.145Z,12.18
2019-02-28T04:06:46.192Z,12.03
2019-02-28T04:09:13.240Z,11.45
2019-02-28T04:11:40.262Z,12.43
2019-02-28T04:14:07.433Z,9.98
2019-02-28T04:16:34.399Z,7.80
2019-02-28T04:19:01.414Z,8.20
2019-02-28T04:21:28.487Z,8.63
2019-02-28T04:23:55.502Z,12.47
2019-02-28T04:26:22.702Z,11.53
2019-02-28T04:28:53.472Z,10.00
2019-02-28T04:31:20.133Z,8.20
2019-02-28T04:33:47.399Z,12.43
2019-02-28T04:36:14.525Z,11.45
2019-02-28T04:38:41.497Z,14.95
2019-02-28T04:41:08.618Z,17.50
2019-02-28T04:43:35.670Z,12.63
2019-02-28T04:46:05.138Z,14.38
2019-02-28T04:48:32.303Z,4.72
2019-02-28T04:51:02.223Z,13.88
2019-02-28T04:53:28.193Z,11.25
2019-02-28T04:55:55.221Z,9.70
2019-02-28T04:58:22.398Z,7.53
2019-02-28T05:00:51.065Z,10.80
2019-02-28T05:03:18.122Z,13.90
2019-02-28T05:05:46.961Z,12.10
2019-02-28T05:08:14.061Z,6.95
2019-02-28T05:10:41.225Z,11.78
2019-02-28T05:13:08.329Z,14.35
2019-02-28T05:15:38.219Z,12.73
2019-02-28T05:18:05.223Z,8.55
2019-02-28T05:20:32.904Z,8.65
2019-02-28T05:23:02.645Z,8.60
2019-02-28T05:25:28.898Z,10.68
2019-02-28T05:27:56.013Z,10.63
2019-02-28T05:30:23.025Z,11.70
2019-02-28T05:32:52.524Z,13.88
2019-02-28T05:35:25.632Z,13.95
2019-02-28T05:37:49.346Z,11.08
2019-02-28T05:40:16.395Z,5.83
2019-02-28T05:42:43.443Z,9.05
2019-02-28T05:45:11.427Z,15.43
2019-02-28T05:47:46.296Z,4.95
2019-02-28T05:50:15.246Z,7.95
2019-02-28T05:52:39.991Z,10.55
2019-02-28T05:55:08.611Z,10.48
2019-02-28T05:57:39.397Z,7.12
2019-02-28T06:00:09.060Z,9.60
2019-02-28T06:02:36.110Z,10.40
2019-02-28T06:05:03.529Z,11.63
2019-02-28T06:07:30.526Z,14.68
2019-02-28T06:09:57.522Z,11.97
2019-02-28T06:12:24.524Z,11.63
2019-02-28T06:14:51.549Z,13.08
2019-02-28T06:17:20.795Z,7.67
2019-02-28T06:19:47.454Z,13.48
2019-02-28T06:22:14.524Z,16.70
2019-02-28T06:24:44.860Z,13.08
2019-02-28T06:27:10.469Z,12.33
2019-02-28T06:29:37.577Z,10.43
2019-02-28T06:32:04.715Z,10.82
2019-02-28T06:34:33.347Z,13.15
2019-02-28T06:37:03.727Z,15.00
2019-02-28T06:39:29.321Z,17.15
2019-02-28T06:41:56.458Z,16.05
2019-02-28T06:44:24.203Z,16.23
2019-02-28T06:46:52.323Z,13.05
2019-02-28T06:49:19.312Z,15.83
2019-02-28T06:51:48.357Z,20.27
2019-02-28T06:54:15.183Z,16.75
2019-02-28T06:56:44.602Z,17.87
2019-02-28T06:59:11.759Z,19.42
2019-02-28T07:01:38.849Z,15.90
2019-02-28T07:04:05.970Z,18.40
2019-02-28T07:06:35.932Z,20.43
2019-02-28T07:09:03.027Z,18.40
2019-02-28T07:11:32.029Z,19.00
2019-02-28T07:13:59.272Z,23.05
2019-02-28T07:16:26.379Z,17.07
2019-02-28T07:18:53.978Z,24.02
2019-02-28T07:21:21.089Z,21.60
2019-02-28T07:23:48.077Z,23.65
2019-02-28T07:26:15.087Z,16.12
2019-02-28T07:28:42.134Z,16.05
2019-02-28T07:31:09.139Z,17.90
2019-02-28T07:33:36.165Z,21.48
2019-02-28T07:36:05.574Z,17.73
2019-02-28T07:38:32.036Z,17.45
2019-02-28T07:41:02.850Z,17.70
2019-02-28T07:43:29.869Z,22.93
2019-02-28T07:45:56.941Z,16.87
2019-02-28T07:48:29.203Z,20.88
2019-02-28T07:50:52.874Z,18.62
2019-02-28T07:53:20.033Z,23.95
2019-02-28T07:55:47.031Z,20.65
2019-02-28T07:58:14.092Z,14.18
2019-02-28T08:00:41.111Z,16.45
2019-02-28T08:03:11.298Z,15.90
2019-02-28T08:05:39.019Z,10.58
2019-02-28T08:08:06.378Z,12.50
2019-02-28T08:10:33.964Z,8.73
2019-02-28T08:13:03.168Z,8.45
2019-02-28T08:15:30.137Z,18.65
2019-02-28T08:17:57.195Z,21.17
2019-02-28T08:20:24.299Z,11.35
2019-02-28T08:22:51.272Z,16.77
2019-02-28T08:25:18.350Z,12.88
2019-02-28T08:27:45.376Z,16.05
2019-02-28T08:30:19.460Z,35.48
2019-02-28T08:35:15.783Z,24.23
2019-02-28T08:37:42.824Z,18.48
2019-02-28T08:40:26.346Z,21.05
2019-02-28T08:42:52.498Z,13.08
2019-02-28T08:45:19.687Z,14.25
2019-02-28T08:47:46.705Z,11.55
2019-02-28T08:50:22.517Z,11.75
2019-02-28T08:52:50.902Z,12.60
2019-02-28T08:55:17.981Z,11.60
2019-02-28T08:57:54.181Z,22.10
2019-02-28T09:00:18.621Z,12.23
2019-02-28T09:02:45.638Z,18.10
2019-02-28T09:05:13.253Z,20.85
2019-02-28T09:07:41.384Z,12.63
2019-02-28T09:10:19.241Z,16.42
2019-02-28T09:12:46.277Z,10.78
2019-02-28T09:15:14.734Z,15.00
2019-02-28T09:17:41.764Z,14.15
2019-02-28T09:20:11.168Z,11.57
2019-02-28T09:22:38.381Z,13.50
2019-02-28T09:25:08.402Z,13.62
2019-02-28T09:27:38.881Z,11.90
2019-02-28T09:30:14.286Z,13.70
2019-02-28T09:32:41.541Z,12.18
2019-02-28T09:35:13.812Z,13.40
2019-02-28T09:37:37.645Z,13.45
2019-02-28T09:40:10.575Z,11.03
2019-02-28T09:42:37.689Z,13.58
2019-02-28T09:45:08.531Z,9.28
2019-02-28T09:47:35.650Z,10.78
2019-02-28T09:50:05.398Z,8.23
2019-02-28T09:52:32.553Z,8.35
2019-02-28T09:54:59.894Z,7.45
2019-02-28T09:57:27.090Z,6.03
2019-02-28T09:59:54.129Z,7.80
2019-02-28T10:02:21.154Z,7.62
2019-02-28T10:04:48.198Z,8.08
2019-02-28T10:07:15.303Z,9.28
2019-02-28T10:09:44.229Z,10.15
2019-02-28T10:12:13.330Z,8.60
2019-02-28T10:14:40.871Z,7.20
2019-02-28T10:17:08.006Z,6.37
2019-02-28T10:19:44.784Z,6.92
2019-02-28T10:22:05.321Z,7.85
2019-02-28T10:24:32.409Z,7.00
2019-02-28T10:26:59.453Z,8.88
2019-02-28T10:29:26.462Z,9.30
2019-02-28T10:31:53.527Z,8.83
2019-02-28T10:34:23.510Z,7.97
2019-02-28T10:36:49.514Z,8.78
2019-02-28T10:39:16.534Z,6.92
2019-02-28T10:41:43.630Z,6.45
2019-02-28T10:44:10.629Z,7.15
2019-02-28T10:46:37.691Z,7.92
2019-02-28T10:49:04.777Z,8.03
2019-02-28T10:51:31.797Z,8.20
2019-02-28T10:53:58.900Z,8.25
2019-02-28T10:56:25.895Z,6.72
2019-02-28T10:58:53.874Z,7.20
2019-02-28T11:01:21.092Z,6.85
2019-02-28T11:03:48.281Z,8.53
2019-02-28T11:06:15.305Z,7.10
2019-02-28T11:08:44.421Z,6.90
2019-02-28T11:11:12.417Z,7.85
2019-02-28T11:13:39.553Z,6.45
2019-02-28T11:16:06.669Z,5.90
2019-02-28T11:18:33.805Z,5.28
2019-02-28T11:21:00.855Z,6.53
2019-02-28T11:23:28.084Z,5.50
2019-02-28T11:25:56.080Z,6.55
2019-02-28T11:28:28.013Z,6.55
2019-02-28T11:30:52.385Z,6.33
2019-02-28T11:33:19.459Z,6.67
2019-02-28T11:35:46.460Z,5.67
2019-02-28T11:38:13.513Z,7.15
2019-02-28T11:40:43.597Z,6.92
2019-02-28T11:43:09.561Z,6.85
2019-02-28T11:45:39.990Z,5.28
2019-02-28T11:48:18.774Z,7.42
2019-02-28T11:50:45.103Z,5.50
2019-02-28T11:53:12.277Z,6.40
2019-02-28T11:55:39.604Z,6.22
2019-02-28T11:58:07.477Z,4.72
2019-02-28T12:00:36.773Z,6.30
2019-02-28T12:03:05.597Z,5.20
2019-02-28T12:05:33.013Z,5.62
2019-02-28T12:08:02.690Z,4.42
2019-02-28T12:10:29.850Z,3.62
2019-02-28T12:12:56.961Z,7.12
2019-02-28T12:15:32.838Z,5.33
2019-02-28T12:18:03.356Z,4.65
2019-02-28T12:20:28.716Z,5.03
2019-02-28T12:22:55.746Z,5.40
2019-02-28T12:25:23.867Z,6.40
2019-02-28T12:27:50.938Z,4.65
2019-02-28T12:30:21.954Z,5.10
2019-02-28T12:32:49.055Z,5.62
2019-02-28T12:35:16.592Z,5.55
2019-02-28T12:37:44.857Z,4.67
2019-02-28T12:40:23.463Z,4.78
2019-02-28T12:42:51.449Z,5.08
2019-02-28T12:45:24.419Z,3.17
2019-02-28T12:47:51.550Z,4.60
2019-02-28T12:50:20.682Z,4.72
2019-02-28T12:52:49.930Z,3.10
2019-02-28T12:55:18.133Z,4.42
2019-02-28T12:57:45.269Z,4.17
2019-02-28T13:00:26.354Z,3.80
2019-02-28T13:02:53.496Z,4.78
2019-02-28T13:05:20.576Z,3.58
2019-02-28T13:07:48.618Z,3.87
2019-02-28T13:10:17.663Z,6.45
2019-02-28T13:12:48.970Z,3.95
2019-02-28T13:15:15.547Z,5.10
2019-02-28T13:17:43.686Z,5.72
2019-02-28T13:20:13.346Z,5.25
2019-02-28T13:22:40.465Z,4.80
2019-02-28T13:25:11.762Z,4.40
2019-02-28T13:27:41.480Z,5.08
2019-02-28T13:30:12.632Z,4.35
2019-02-28T13:32:39.781Z,4.85
2019-02-28T13:35:11.285Z,3.72
2019-02-28T13:37:40.758Z,4.35
2019-02-28T13:40:10.052Z,4.33
2019-02-28T13:42:40.721Z,3.75
2019-02-28T13:45:16.189Z,5.62
2019-02-28T13:47:42.117Z,5.53
2019-02-28T13:50:12.934Z,4.92
2019-02-28T13:52:40.111Z,5.35
2019-02-28T13:55:09.793Z,5.42
2019-02-28T13:57:36.860Z,3.90
2019-02-28T14:00:15.335Z,4.90
2019-02-28T14:02:42.434Z,5.40
2019-02-28T14:05:09.445Z,5.40
2019-02-28T14:07:36.521Z,5.28
2019-02-28T14:10:07.023Z,4.12
2019-02-28T14:12:34.402Z,6.08
2019-02-28T14:15:01.501Z,5.92
2019-02-28T14:17:28.804Z,4.40
2019-02-28T14:19:56.857Z,3.50
2019-02-28T14:22:24.018Z,4.45
2019-02-28T14:24:51.206Z,3.52
2019-02-28T14:27:21.696Z,3.47
2019-02-28T14:29:48.441Z,3.10
2019-02-28T14:32:16.455Z,4.15
2019-02-28T14:34:43.603Z,3.70
2019-02-28T14:37:11.551Z,3.30
2019-02-28T14:39:39.865Z,3.72
2019-02-28T14:42:08.607Z,3.80
2019-02-28T14:44:38.045Z,2.72
2019-02-28T14:47:05.140Z,3.05
2019-02-28T14:49:32.332Z,4.12
2019-02-28T14:52:00.328Z,4.28
2019-02-28T14:54:28.317Z,3.17
2019-02-28T14:56:55.324Z,3.42
2019-02-28T14:59:22.397Z,3.95
2019-02-28T15:01:49.573Z,3.80
2019-02-28T15:04:18.289Z,4.35
2019-02-28T15:06:47.237Z,4.45
2019-02-28T15:09:15.310Z,3.40
2019-02-28T15:11:43.597Z,4.05
2019-02-28T15:14:11.217Z,4.05
2019-02-28T15:16:38.266Z,4.35
2019-02-28T15:19:05.867Z,3.55
2019-02-28T15:21:33.017Z,3.83
2019-02-28T15:24:01.147Z,5.33
2019-02-28T15:26:29.784Z,4.30
2019-02-28T15:28:56.958Z,6.03
2019-02-28T15:31:24.005Z,5.37
2019-02-28T15:33:52.747Z,4.40
2019-02-28T15:36:20.915Z,5.20
2019-02-28T15:38:48.735Z,6.60
2019-02-28T15:41:15.721Z,5.03
2019-02-28T15:43:42.854Z,5.50
2019-02-28T15:46:11.972Z,4.60
2019-02-28T15:48:39.461Z,5.00
2019-02-28T15:51:06.635Z,5.85
2019-02-28T15:53:34.453Z,4.60
2019-02-28T15:56:01.561Z,4.92
2019-02-28T15:58:28.566Z,4.22
2019-02-28T16:00:56.579Z,5.72
2019-02-28T16:03:24.487Z,4.72
2019-02-28T16:05:51.549Z,4.00
2019-02-28T16:08:18.536Z,4.92
2019-02-28T16:10:53.454Z,5.65
2019-02-28T16:13:14.418Z,5.03
2019-02-28T16:15:43.278Z,6.47
2019-02-28T16:18:12.053Z,3.95
2019-02-28T16:20:39.297Z,5.78
2019-02-28T16:23:06.247Z,5.87
2019-02-28T16:25:35.020Z,5.53
2019-02-28T16:28:04.451Z,4.62
2019-02-28T16:30:32.187Z,4.47
2019-02-28T16:32:59.691Z,4.72
2019-02-28T16:35:28.879Z,4.95
2019-02-28T16:37:55.629Z,5.87
2019-02-28T16:40:26.962Z,5.83
2019-02-28T16:42:53.631Z,4.33
2019-02-28T16:45:30.453Z,5.12
2019-02-28T16:47:59.547Z,7.92
2019-02-28T16:50:26.801Z,6.25
2019-02-28T16:52:54.635Z,5.28
2019-02-28T16:55:22.767Z,4.90
2019-02-28T16:57:49.951Z,6.97
2019-02-28T17:00:17.252Z,5.10
2019-02-28T17:02:44.398Z,6.10
2019-02-28T17:05:11.503Z,5.10
2019-02-28T17:07:40.480Z,6.25
2019-02-28T17:10:11.128Z,6.22
2019-02-28T17:12:45.905Z,5.78
2019-02-28T17:15:19.644Z,4.90
2019-02-28T17:17:51.072Z,4.70
2019-02-28T17:20:20.481Z,4.72
2019-02-28T17:22:47.525Z,3.92
2019-02-28T17:25:14.588Z,5.00
2019-02-28T17:27:43.416Z,5.15
2019-02-28T17:30:17.272Z,6.72
2019-02-28T17:32:44.283Z,4.53
2019-02-28T17:35:11.366Z,3.65
2019-02-28T17:37:38.466Z,4.03
2019-02-28T17:40:11.657Z,5.17
2019-02-28T17:42:39.041Z,4.72
2019-02-28T17:45:15.597Z,3.85
2019-02-28T17:47:57.036Z,3.62
2019-02-28T17:50:46.038Z,6.25
2019-02-28T17:53:31.888Z,4.72
2019-02-28T17:56:08.490Z,4.60
2019-02-28T17:59:07.787Z,4.55
2019-02-28T18:01:38.470Z,5.60
2019-02-28T18:04:24.036Z,5.22
2019-02-28T18:07:11.785Z,5.53
2019-02-28T18:09:51.495Z,5.75
2019-02-28T18:12:40.679Z,5.17
2019-02-28T18:15:15.560Z,4.17
2019-02-28T18:18:21.689Z,7.00
2019-02-28T18:21:17.528Z,5.87
2019-02-28T18:24:11.573Z,5.17
2019-02-28T18:27:15.847Z,5.45
2019-02-28T18:30:01.050Z,5.75
2019-02-28T18:32:29.790Z,5.85
2019-02-28T18:34:57.148Z,5.55
2019-02-28T18:37:24.558Z,4.70
2019-02-28T18:39:51.685Z,5.65
2019-02-28T18:42:19.070Z,4.70
2019-02-28T18:44:47.078Z,7.55
2019-02-28T18:47:14.140Z,6.08
2019-02-28T18:49:41.173Z,4.72
2019-02-28T18:52:08.329Z,4.83
2019-02-28T18:54:35.389Z,6.20
2019-02-28T18:57:02.400Z,6.17
2019-02-28T18:59:30.373Z,6.72
2019-02-28T19:01:57.385Z,6.97
2019-02-28T19:04:24.534Z,6.75
2019-02-28T19:06:51.551Z,5.28
2019-02-28T19:09:21.265Z,6.72
2019-02-28T19:11:48.410Z,6.10
2019-02-28T19:14:16.351Z,5.58
2019-02-28T19:16:43.383Z,4.28
2019-02-28T19:19:10.546Z,3.27
2019-02-28T19:21:37.578Z,5.15
2019-02-28T19:24:04.624Z,6.03
2019-02-28T19:26:31.913Z,6.97
2019-02-28T19:28:58.905Z,5.70
2019-02-28T19:31:26.025Z,5.35
2019-02-28T19:33:53.068Z,5.45
2019-02-28T19:36:22.509Z,6.28
2019-02-28T19:38:49.569Z,6.65
2019-02-28T19:41:16.534Z,7.30
2019-02-28T19:43:45.970Z,6.28
2019-02-28T19:46:13.069Z,6.33
2019-02-28T19:48:40.098Z,4.92
2019-02-28T19:51:07.427Z,5.45
2019-02-28T19:53:34.544Z,5.17
2019-02-28T19:56:02.457Z,3.62
2019-02-28T19:58:29.559Z,3.42
2019-02-28T20:00:57.457Z,4.35
2019-02-28T20:03:24.544Z,5.83
2019-02-28T20:05:51.686Z,3.35
2019-02-28T20:08:18.814Z,6.12
2019-02-28T20:10:47.144Z,3.95
2019-02-28T20:13:15.720Z,3.65
2019-02-28T20:15:42.752Z,3.87
2019-02-28T20:18:09.736Z,9.95
2019-02-28T20:20:36.735Z,6.85
2019-02-28T20:23:03.813Z,6.62
2019-02-28T20:25:31.321Z,6.17
2019-02-28T20:27:58.609Z,7.92
2019-02-28T20:30:26.542Z,8.30
2019-02-28T20:32:53.973Z,8.23
2019-02-28T20:35:26.573Z,5.92
2019-02-28T20:37:50.847Z,5.40
2019-02-28T20:40:24.209Z,7.37
2019-02-28T20:42:51.277Z,7.35
2019-02-28T20:45:18.357Z,7.08
2019-02-28T20:47:45.649Z,7.78
2019-02-28T20:50:28.530Z,10.90
2019-02-28T20:52:55.497Z,6.70
2019-02-28T20:55:22.682Z,6.05
2019-02-28T20:57:49.695Z,7.12
2019-02-28T21:00:18.867Z,9.23
2019-02-28T21:02:48.979Z,6.00
2019-02-28T21:05:16.077Z,7.78
2019-02-28T21:07:43.112Z,11.70
2019-02-28T21:10:10.578Z,7.58
2019-02-28T21:12:38.000Z,7.80
2019-02-28T21:15:08.089Z,7.80
2019-02-28T21:17:35.503Z,7.33
2019-02-28T21:20:12.210Z,6.40
2019-02-28T21:22:40.636Z,6.12
2019-02-28T21:25:09.773Z,7.50
2019-02-28T21:27:36.787Z,4.78
2019-02-28T21:30:10.211Z,6.22
2019-02-28T21:32:37.258Z,5.22
2019-02-28T21:35:05.303Z,6.05
2019-02-28T21:37:32.740Z,5.97
2019-02-28T21:40:01.425Z,7.00
2019-02-28T21:42:29.186Z,5.70
2019-02-28T21:44:56.224Z,8.88
2019-02-28T21:47:23.309Z,5.22
2019-02-28T21:49:50.432Z,7.95
2019-02-28T21:52:18.587Z,6.55
2019-02-28T21:54:45.578Z,5.87
2019-02-28T21:57:12.615Z,4.25
2019-02-28T21:59:39.725Z,4.58
2019-02-28T22:02:07.714Z,4.20
2019-02-28T22:04:34.797Z,4.42
2019-02-28T22:07:01.841Z,4.67
2019-02-28T22:09:29.003Z,4.85
2019-02-28T22:11:55.990Z,4.22
2019-02-28T22:14:23.009Z,4.15
2019-02-28T22:16:50.084Z,4.12
2019-02-28T22:19:17.149Z,3.58
2019-02-28T22:21:44.198Z,4.45
2019-02-28T22:24:11.272Z,3.17
2019-02-28T22:26:38.234Z,3.10
2019-02-28T22:29:05.275Z,3.35
2019-02-28T22:31:35.193Z,3.92
2019-02-28T22:34:03.993Z,3.20
2019-02-28T22:36:32.939Z,4.45
2019-02-28T22:39:05.253Z,3.72
2019-02-28T22:41:34.140Z,5.30
2019-02-28T22:44:01.151Z,4.87
2019-02-28T22:46:28.205Z,5.12
2019-02-28T22:48:56.210Z,2.50
2019-02-28T22:51:23.426Z,3.67
2019-02-28T22:53:52.561Z,3.42
2019-02-28T22:56:22.069Z,2.00
2019-02-28T22:58:49.161Z,3.10
2019-02-28T23:01:18.479Z,2.87
2019-02-28T23:03:45.665Z,3.02
2019-02-28T23:06:12.816Z,3.37
2019-02-28T23:08:39.942Z,3.85
2019-02-28T23:11:06.978Z,2.90
2019-02-28T23:13:34.100Z,3.62
2019-02-28T23:16:02.905Z,3.85
2019-02-28T23:18:30.050Z,4.55
2019-02-28T23:20:57.025Z,4.55
2019-02-28T23:23:24.265Z,4.80
2019-02-28T23:25:51.249Z,4.35
2019-02-28T23:28:25.004Z,3.62
2019-02-28T23:31:13.788Z,3.30
2019-02-28T23:33:40.938Z,3.60
2019-02-28T23:36:07.906Z,3.30
2019-02-28T23:38:34.930Z,2.75
2019-02-28T23:41:02.841Z,2.90
2019-02-28T23:43:29.921Z,1.98
2019-02-28T23:45:57.027Z,2.47
2019-02-28T23:48:24.120Z,2.20
2019-02-28T23:50:51.223Z,3.05
2019-02-28T23:53:18.259Z,2.58
2019-02-28T23:55:45.350Z,1.67
2019-02-28T23:58:12.398Z,2.47
